Time;durP1;ratioP1;P1;durP2;ratioP2;P2;SDS_P1;SDS_P2;PMS_P1;PMS_P2;Temp;Humidity;BMP_temperature;BMP_pressure;BME280_temperature;BME280_humidity;BME280_pressure;Samples;Min_cycle;Max_cycle;Signal;HPM_P1;HPM_P2
2023/07/05 00:00:13;;;;;;;0.30;0.30;;;;;;;;;;5018660;28;20496;-61
2023/07/05 00:02:40;;;;;;;0.30;0.30;;;;;;;;;;5011738;28;20438;-61
2023/07/05 00:05:10;;;;;;;4.80;0.50;;;;;;;;;;5015352;28;20790;-61
2023/07/05 00:08:01;;;;;;;1.60;1.00;;;;;;;;;;5015040;28;20422;-61
2023/07/05 00:11:02;;;;;;;3.70;0.65;;;;;;;;;;5015814;28;20896;-61
2023/07/05 00:13:35;;;;;;;0.40;0.40;;;;;;;;;;5015907;28;20431;-60
2023/07/05 00:16:09;;;;;;;0.60;0.50;;;;;;;;;;5015544;28;20837;-59
2023/07/05 00:19:00;;;;;;;0.65;0.65;;;;;;;;;;5017655;28;20446;-61
2023/07/05 00:21:51;;;;;;;0.40;0.40;;;;;;;;;;5009404;28;20477;-61
2023/07/05 00:24:20;;;;;;;0.10;0.10;;;;;;;;;;4999347;28;20434;-62
2023/07/05 00:26:52;;;;;;;0.30;0.30;;;;;;;;;;5000034;28;20947;-62
2023/07/05 00:29:20;;;;;;;0.70;0.30;;;;;;;;;;4998028;28;20433;-62
2023/07/05 00:31:47;;;;;;;0.20;0.20;;;;;;;;;;5015092;28;21613;-62
2023/07/05 00:34:14;;;;;;;0.70;0.70;;;;;;;;;;5015511;28;20438;-62
2023/07/05 00:36:41;;;;;;;0.10;0.10;;;;;;;;;;5016333;28;20869;-61
2023/07/05 00:39:14;;;;;;;0.20;0.20;;;;;;;;;;4999125;28;20434;-61
2023/07/05 00:41:41;;;;;;;0.40;0.40;;;;;;;;;;5017025;28;20470;-60
2023/07/05 00:44:08;;;;;;;0.30;0.30;;;;;;;;;;5017788;28;22516;-60
2023/07/05 00:46:40;;;;;;;0.35;0.35;;;;;;;;;;4997333;28;20481;-61
2023/07/05 00:49:12;;;;;;;0.90;0.30;;;;;;;;;;5013310;28;20442;-60
2023/07/05 00:51:46;;;;;;;0.20;0.20;;;;;;;;;;4992236;28;20431;-60
2023/07/05 00:54:16;;;;;;;0.40;0.40;;;;;;;;;;5017301;28;20442;-60
2023/07/05 00:56:50;;;;;;;1.10;0.30;;;;;;;;;;5017269;28;20439;-60
2023/07/05 00:59:17;;;;;;;0.10;0.10;;;;;;;;;;5017263;28;20510;-60
2023/07/05 01:01:45;;;;;;;0.70;0.32;;;;;;;;;;5012799;28;20460;-60
2023/07/05 01:04:33;;;;;;;0.20;0.20;;;;;;;;;;5014351;28;20925;-60
2023/07/05 01:07:00;;;;;;;0.50;0.50;;;;;;;;;;5016199;28;20812;-60
2023/07/05 01:09:27;;;;;;;0.40;0.35;;;;;;;;;;5016650;28;20446;-60
2023/07/05 01:12:21;;;;;;;0.35;0.35;;;;;;;;;;5014880;28;20497;-60
2023/07/05 01:14:51;;;;;;;0.65;0.65;;;;;;;;;;4937339;28;20490;-60
2023/07/05 01:17:33;;;;;;;0.60;0.30;;;;;;;;;;4937209;28;20447;-59
2023/07/05 01:20:21;;;;;;;0.20;0.20;;;;;;;;;;4936103;28;20445;-59
2023/07/05 01:23:07;;;;;;;0.30;0.30;;;;;;;;;;4940333;28;20546;-60
2023/07/05 01:25:55;;;;;;;1.00;0.55;;;;;;;;;;4947844;28;23464;-60
2023/07/05 01:28:28;;;;;;;0.20;0.20;;;;;;;;;;4957723;28;20482;-59
2023/07/05 01:31:14;;;;;;;0.20;0.20;;;;;;;;;;4957137;28;20912;-60
2023/07/05 01:33:41;;;;;;;1.00;0.73;;;;;;;;;;4959077;28;20475;-59
2023/07/05 01:36:09;;;;;;;1.20;0.70;;;;;;;;;;4960669;28;20440;-60
2023/07/05 01:38:36;;;;;;;0.50;0.43;;;;;;;;;;4960888;28;20517;-59
2023/07/05 01:41:05;;;;;;;0.20;0.20;;;;;;;;;;4961459;28;21219;-59
2023/07/05 01:43:34;;;;;;;0.38;0.38;;;;;;;;;;4956753;28;21792;-60
2023/07/05 01:46:07;;;;;;;0.90;0.60;;;;;;;;;;4953533;28;20433;-60
2023/07/05 01:49:13;;;;;;;0.70;0.70;;;15.60;99.90;;;;;;4957237;28;20431;-59
2023/07/05 01:51:58;;;;;;;0.20;0.20;;;;;;;;;;4980948;28;21101;-59
2023/07/05 01:54:44;;;;;;;0.10;0.10;;;;;;;;;;5018235;28;20467;-59
2023/07/05 01:57:20;;;;;;;0.40;0.22;;;15.70;99.90;;;;;;5017143;28;20447;-59
2023/07/05 02:00:12;;;;;;;0.70;0.47;;;15.80;99.90;;;;;;5019691;28;21100;-59
2023/07/05 02:02:45;;;;;;;0.15;0.15;;;15.70;99.90;;;;;;5019666;28;20478;-59
2023/07/05 02:05:15;;;;;;;0.40;0.40;;;;;;;;;;4999697;28;20427;-59
2023/07/05 02:07:44;;;;;;;0.40;0.40;;;;;;;;;;5018550;28;20519;-59
2023/07/05 02:10:13;;;;;;;0.30;0.30;;;;;;;;;;5001232;28;20445;-60
2023/07/05 02:12:41;;;;;;;0.10;0.10;;;;;;;;;;5019432;28;20520;-59
2023/07/05 02:15:09;;;;;;;0.22;0.22;;;;;;;;;;5018503;28;20421;-59
2023/07/05 02:17:36;;;;;;;0.20;0.20;;;;;;;;;;5022280;28;20422;-59
2023/07/05 02:20:06;;;;;;;0.10;0.10;;;;;;;;;;5020797;28;20434;-59
2023/07/05 02:22:33;;;;;;;0.20;0.20;;;;;;;;;;5017360;28;20837;-59
2023/07/05 02:25:00;;;;;;;0.08;0.08;;;;;;;;;;5004229;28;20441;-59
2023/07/05 02:27:30;;;;;;;0.43;0.43;;;;;;;;;;5018629;28;20537;-59
2023/07/05 02:29:57;;;;;;;0.20;0.20;;;;;;;;;;5003663;28;20433;-59
2023/07/05 02:32:25;;;;;;;0.30;0.30;;;;;;;;;;5011745;28;20455;-59
2023/07/05 02:34:52;;;;;;;188.38;171.98;;;;;;;;;;5011792;28;20540;-59
2023/07/05 02:37:19;;;;;;;0.10;0.10;;;;;;;;;;5000921;28;20461;-59
2023/07/05 02:39:51;;;;;;;0.40;0.40;;;;;;;;;;5019708;28;22936;-59
2023/07/05 02:42:19;;;;;;;1.02;0.28;;;;;;;;;;5019232;28;20456;-59
2023/07/05 02:44:49;;;;;;;0.60;0.30;;;;;;;;;;5006742;28;20524;-59
2023/07/05 02:47:18;;;;;;;0.20;0.20;;;;;;;;;;5014909;28;20432;-59
2023/07/05 02:49:45;;;;;;;0.33;0.33;;;;;;;;;;5015435;28;20437;-59
2023/07/05 02:52:13;;;;;;;0.10;0.10;;;;;;;;;;5017161;28;20470;-60
2023/07/05 02:54:40;;;;;;;0.20;0.20;;;;;;;;;;5001768;28;20530;-59
2023/07/05 02:57:08;;;;;;;0.10;0.10;;;;;;;;;;5019773;28;20591;-59
2023/07/05 02:59:35;;;;;;;0.10;0.10;;;;;;;;;;5018034;28;20445;-58
2023/07/05 03:02:02;;;;;;;0.00;0.00;;;;;;;;;;5013334;28;20439;-59
2023/07/05 03:04:30;;;;;;;0.10;0.10;;;;;;;;;;5019477;28;20429;-59
2023/07/05 03:06:58;;;;;;;0.00;0.00;;;;;;;;;;5020086;28;20888;-59
2023/07/05 03:09:25;;;;;;;0.28;0.28;;;;;;;;;;5016165;28;20580;-60
2023/07/05 03:11:52;;;;;;;0.10;0.10;;;;;;;;;;5019805;28;20439;-60
2023/07/05 03:14:19;;;;;;;0.13;0.13;;;;;;;;;;5023487;28;20436;-60
2023/07/05 03:16:46;;;;;;;0.00;0.00;;;;;;;;;;5020227;28;20518;-59
2023/07/05 03:19:14;;;;;;;0.10;0.10;;;;;;;;;;5021793;28;20809;-60
2023/07/05 03:21:50;;;;;;;0.10;0.10;;;;;;;;;;5021754;28;20517;-60
2023/07/05 03:24:17;;;;;;;0.35;0.32;;;;;;;;;;5008631;28;20520;-59
2023/07/05 03:26:45;;;;;;;0.40;0.32;;;;;;;;;;5019976;28;20435;-59
2023/07/05 03:29:15;;;;;;;0.30;0.30;;;;;;;;;;5021871;28;20434;-59
2023/07/05 03:31:42;;;;;;;0.13;0.13;;;;;;;;;;5021532;28;21543;-59
2023/07/05 03:34:09;;;;;;;0.60;0.10;;;;;;;;;;5024035;28;20546;-59
2023/07/05 03:36:39;;;;;;;0.30;0.30;;;;;;;;;;5022992;28;20433;-59
2023/07/05 03:39:06;;;;;;;0.20;0.20;;;;;;;;;;5026023;28;20594;-59
2023/07/05 03:41:33;;;;;;;18.20;15.65;;;;;;;;;;5021126;28;20441;-59
2023/07/05 03:44:01;;;;;;;0.32;0.32;;;;;;;;;;5022091;28;20440;-59
2023/07/05 03:46:28;;;;;;;0.60;0.60;;;;;;;;;;5021625;28;20434;-59
2023/07/05 03:48:58;;;;;;;0.00;0.00;;;;;;;;;;5020578;28;20538;-59
2023/07/05 03:51:32;;;;;;;1.00;0.70;;;;;;;;;;5021320;28;20590;-59
2023/07/05 03:53:59;;;;;;;0.20;0.20;;;;;;;;;;5005225;28;20449;-59
2023/07/05 03:56:29;;;;;;;0.38;0.38;;;;;;;;;;5020280;28;20538;-59
2023/07/05 03:58:57;;;;;;;0.10;0.10;;;;;;;;;;5019026;28;21000;-59
2023/07/05 04:01:25;;;;;;;0.22;0.22;;;;;;;;;;5023479;28;20525;-59
2023/07/05 04:03:56;;;;;;;1.20;0.70;;;;;;;;;;5022155;28;20495;-59
2023/07/05 04:06:25;;;;;;;0.10;0.10;;;;;;;;;;5022513;28;20955;-60
2023/07/05 04:08:52;;;;;;;0.40;0.40;;;;;;;;;;5019295;28;20461;-59
2023/07/05 04:11:20;;;;;;;0.75;0.10;;;;;;;;;;5021866;28;20492;-60
2023/07/05 04:13:48;;;;;;;0.38;0.38;;;;;;;;;;5021312;28;20532;-60
2023/07/05 04:16:18;;;;;;;0.50;0.50;;;;;;;;;;5022584;28;21497;-59
2023/07/05 04:18:46;;;;;;;0.70;0.50;;;;;;;;;;5017843;28;21218;-60
2023/07/05 04:21:14;;;;;;;0.60;0.60;;;;;;;;;;5021800;28;20441;-59
2023/07/05 04:23:41;;;;;;;0.22;0.20;;;;;;;;;;5017069;28;20464;-59
2023/07/05 04:26:10;;;;;;;0.13;0.13;;;;;;;;;;5019525;28;21136;-59
2023/07/05 04:28:38;;;;;;;0.20;0.20;;;;;;;;;;5015060;28;20516;-61
2023/07/05 04:31:07;;;;;;;0.20;0.20;;;;;;;;;;5012178;28;20467;-60
2023/07/05 04:33:34;;;;;;;0.50;0.30;;;;;;;;;;5015181;28;20439;-59
2023/07/05 04:36:02;;;;;;;0.60;0.60;;;;;;;;;;5016698;28;20470;-60
2023/07/05 04:38:29;;;;;;;0.20;0.20;;;;;;;;;;5015083;28;20435;-60
2023/07/05 04:40:57;;;;;;;0.10;0.10;;;;;;;;;;5015715;28;20434;-59
2023/07/05 04:43:27;;;;;;;0.30;0.10;;;;;;;;;;5016839;28;20459;-60
2023/07/05 04:45:55;;;;;;;0.13;0.13;;;;;;;;;;5018682;28;20558;-59
2023/07/05 04:48:23;;;;;;;2.20;1.00;;;;;;;;;;5017656;28;20526;-59
2023/07/05 04:50:52;;;;;;;3.70;0.70;;;;;;;;;;5016377;28;20443;-59
2023/07/05 04:53:21;;;;;;;0.30;0.30;;;;;;;;;;5015525;28;20435;-59
2023/07/05 04:55:49;;;;;;;0.30;0.30;;;;;;;;;;5016286;28;20439;-59
2023/07/05 04:58:17;;;;;;;0.35;0.35;;;;;;;;;;5016061;28;20465;-60
2023/07/05 05:00:49;;;;;;;0.30;0.30;;;;;;;;;;5015397;28;20850;-60
2023/07/05 05:03:22;;;;;;;0.20;0.20;;;;;;;;;;5005259;28;20504;-60
2023/07/05 05:05:51;;;;;;;0.38;0.38;;;;;;;;;;5013217;28;20439;-60
2023/07/05 05:08:19;;;;;;;0.95;0.52;;;;;;;;;;5014811;28;20439;-60
2023/07/05 05:10:50;;;;;;;1.80;0.70;;;;;;;;;;5017251;28;20438;-60
2023/07/05 05:13:20;;;;;;;0.30;0.30;;;;;;;;;;5014358;28;20515;-60
2023/07/05 05:15:48;;;;;;;0.40;0.40;;;;;;;;;;5010927;28;20964;-59
2023/07/05 05:18:17;;;;;;;0.38;0.38;;;;;;;;;;5016629;28;20478;-60
2023/07/05 05:20:44;;;;;;;0.47;0.47;;;;;;;;;;4997191;28;22133;-59
2023/07/05 05:23:11;;;;;;;0.70;0.52;;;;;;;;;;5017405;28;20976;-60
2023/07/05 05:25:42;;;;;;;0.60;0.60;;;;;;;;;;5014618;28;20511;-60
2023/07/05 05:28:10;;;;;;;13.70;0.60;;;;;;;;;;5017324;28;20518;-60
2023/07/05 05:30:38;;;;;;;0.47;0.47;;;;;;;;;;5015682;28;21172;-60
2023/07/05 05:33:05;;;;;;;0.90;0.38;;;;;;;;;;5013893;28;20439;-61
2023/07/05 05:35:34;;;;;;;0.10;0.10;;;;;;;;;;5015657;28;20435;-60
2023/07/05 05:38:03;;;;;;;0.32;0.32;;;;;;;;;;5016779;28;20444;-60
2023/07/05 05:40:32;;;;;;;0.20;0.20;;;;;;;;;;5016995;28;20492;-60
2023/07/05 05:42:59;;;;;;;0.30;0.30;;;;;;;;;;5017037;28;20469;-60
2023/07/05 05:45:27;;;;;;;0.45;0.45;;;;;;;;;;5016556;28;20435;-61
2023/07/05 05:47:54;;;;;;;0.30;0.30;;;;;;;;;;5017415;28;20940;-60
2023/07/05 05:50:22;;;;;;;0.50;0.50;;;;;;;;;;5013413;28;20474;-60
2023/07/05 05:52:49;;;;;;;0.50;0.50;;;;;;;;;;5017094;28;20476;-60
2023/07/05 05:55:17;;;;;;;0.57;0.57;;;;;;;;;;5015758;28;20464;-60
2023/07/05 05:57:45;;;;;;;0.90;0.40;;;;;;;;;;4996428;28;20492;-60
2023/07/05 06:00:12;;;;;;;0.47;0.47;;;;;;;;;;5016145;28;20439;-60
2023/07/05 06:02:39;;;;;;;0.35;0.35;;;;;;;;;;5016984;28;20522;-60
2023/07/05 06:05:08;;;;;;;1.30;0.28;;;;;;;;;;5013338;28;20433;-60
2023/07/05 06:07:35;;;;;;;0.40;0.40;;;;;;;;;;5016080;28;20438;-60
2023/07/05 06:10:04;;;;;;;1.50;0.60;;;;;;;;;;5012413;28;21194;-60
2023/07/05 06:12:31;;;;;;;0.60;0.60;;;;;;;;;;4998412;28;20434;-60
2023/07/05 06:14:58;;;;;;;1.13;0.57;;;;;;;;;;5012227;28;20442;-60
2023/07/05 06:17:26;;;;;;;0.45;0.45;;;;;;;;;;5013977;28;20435;-60
2023/07/05 06:19:54;;;;;;;0.60;0.60;;;;;;;;;;5012812;28;20488;-60
2023/07/05 06:22:21;;;;;;;0.60;0.35;;;;;;;;;;5017533;28;20518;-61
2023/07/05 06:24:48;;;;;;;0.33;0.33;;;;;;;;;;5015375;28;20473;-62
2023/07/05 06:27:17;;;;;;;0.95;0.52;;;;;;;;;;5013792;28;20437;-60
2023/07/05 06:29:44;;;;;;;0.75;0.75;;;;;;;;;;5009223;28;20525;-60
2023/07/05 06:32:11;;;;;;;0.40;0.40;;;;;;;;;;5011813;28;20444;-61
2023/07/05 06:34:39;;;;;;;5.90;0.55;;;;;;;;;;5006106;28;20529;-62
2023/07/05 06:37:06;;;;;;;1.10;0.80;;;;;;;;;;5013795;28;20437;-61
2023/07/05 06:39:33;;;;;;;1.85;0.95;;;;;;;;;;5017671;28;20435;-62
2023/07/05 06:42:01;;;;;;;0.68;0.68;;;;;;;;;;5014588;28;20532;-60
2023/07/05 06:44:28;;;;;;;0.80;0.68;;;;;;;;;;5017297;28;20467;-60
2023/07/05 06:46:59;;;;;;;1.17;0.70;;;;;;;;;;5013890;28;20436;-60
2023/07/05 06:49:27;;;;;;;0.40;0.40;;;;;;;;;;5015495;28;20809;-60
2023/07/05 06:51:57;;;;;;;0.50;0.50;;;;;;;;;;5016209;28;20440;-60
2023/07/05 06:54:24;;;;;;;0.22;0.22;;;;;;;;;;5011809;28;21019;-61
2023/07/05 06:56:51;;;;;;;1.15;0.55;;;;;;;;;;5012311;28;20435;-60
2023/07/05 06:59:20;;;;;;;1.00;0.75;;;;;;;;;;4995791;28;20440;-62
2023/07/05 07:01:50;;;;;;;0.40;0.40;;;;;;;;;;5017350;28;20482;-60
2023/07/05 07:04:17;;;;;;;0.70;0.70;;;;;;;;;;5016024;28;20538;-61
2023/07/05 07:06:45;;;;;;;1.25;0.65;;;;;;;;;;5014337;28;20763;-62
2023/07/05 07:09:14;;;;;;;1.00;0.90;;;;;;;;;;5017220;28;20439;-61
2023/07/05 07:11:42;;;;;;;1.10;0.95;;;;;;;;;;5007447;28;20813;-61
2023/07/05 07:14:11;;;;;;;0.83;0.83;;;;;;;;;;5015258;28;20434;-61
2023/07/05 07:16:41;;;;;;;1.73;0.82;;;;;;;;;;5015926;28;20433;-61
2023/07/05 07:19:08;;;;;;;0.43;0.43;;;;;;;;;;5015870;28;20447;-60
2023/07/05 07:21:37;;;;;;;2.15;0.75;;;;;;;;;;5016912;28;20458;-62
2023/07/05 07:24:04;;;;;;;0.90;0.68;;;;;;;;;;5012230;28;20470;-60
2023/07/05 07:26:32;;;;;;;1.10;0.82;;;;;;;;;;5007331;28;20443;-60
2023/07/05 07:28:59;;;;;;;0.82;0.82;;;;;;;;;;5006311;28;20447;-60
2023/07/05 07:31:30;;;;;;;0.98;0.63;;;;;;;;;;5007607;28;20435;-61
2023/07/05 07:33:57;;;;;;;0.75;0.75;;;;;;;;;;5014704;28;20443;-62
2023/07/05 07:36:25;;;;;;;0.82;0.43;;;;;;;;;;5017452;28;20519;-60
2023/07/05 07:38:53;;;;;;;0.88;0.88;;;;;;;;;;5013076;28;20984;-62
2023/07/05 07:41:20;;;;;;;1.27;0.80;;;;;;;;;;5011565;28;20580;-60
2023/07/05 07:43:50;;;;;;;0.57;0.57;;;;;;;;;;5011597;28;20518;-61
2023/07/05 07:46:20;;;;;;;0.90;0.90;;;;;;;;;;5015239;28;20443;-60
2023/07/05 07:48:49;;;;;;;0.50;0.50;;;;;;;;;;5015199;28;20420;-60
2023/07/05 07:51:18;;;;;;;0.50;0.50;;;;;;;;;;5013676;28;20490;-59
2023/07/05 07:54:04;;;;;;;1.08;0.50;;;;;;;;;;5010641;28;20435;-59
2023/07/05 07:56:32;;;;;;;1.20;1.05;;;;;;;;;;5011848;28;20794;-62
2023/07/05 07:59:06;;;;;;;0.68;0.68;;;;;;;;;;5012489;28;21300;-59
2023/07/05 08:01:38;;;;;;;1.10;0.70;;;;;;;;;;5011809;28;20465;-59
2023/07/05 08:04:07;;;;;;;0.50;0.50;;;;;;;;;;5015876;28;20850;-60
2023/07/05 08:06:39;;;;;;;0.40;0.40;;;;;;;;;;5016315;28;20434;-59
2023/07/05 08:09:07;;;;;;;0.50;0.50;;;;;;;;;;5015982;28;20469;-61
2023/07/05 08:11:35;;;;;;;0.75;0.75;;;;;;;;;;5018348;28;21136;-60
2023/07/05 08:14:02;;;;;;;3.00;0.57;;;;;;;;;;5016330;28;20443;-60
2023/07/05 08:16:30;;;;;;;1.17;0.70;;;;;;;;;;5022534;28;20434;-61
2023/07/05 08:18:57;;;;;;;0.60;0.60;;;;;;;;;;5016433;28;20439;-60
2023/07/05 08:21:24;;;;;;;0.40;0.40;;;;;;;;;;5016597;28;20439;-59
2023/07/05 08:23:51;;;;;;;0.68;0.65;;;;;;;;;;5015737;28;20464;-61
2023/07/05 08:26:19;;;;;;;0.75;0.75;;;;;;;;;;5014885;28;20518;-60
2023/07/05 08:28:48;;;;;;;0.80;0.80;;;;;;;;;;5013748;28;20449;-59
2023/07/05 08:31:15;;;;;;;1.50;0.52;;;;;;;;;;5017419;28;20921;-59
2023/07/05 08:33:44;;;;;;;1.02;1.02;;;;;;;;;;5015410;28;20539;-60
2023/07/05 08:36:15;;;;;;;0.70;0.70;;;;;;;;;;5014062;28;20431;-60
2023/07/05 08:38:43;;;;;;;0.70;0.70;;;;;;;;;;5015470;28;21312;-61
2023/07/05 08:41:28;;;;;;;0.70;0.70;;;;;;;;;;5017358;28;20800;-61
2023/07/05 08:44:14;;;;;;;0.57;0.57;;;;;;;;;;5015747;28;20941;-61
2023/07/05 08:46:45;;;;;;;0.50;0.50;;;;;;;;;;5018467;28;20434;-61
2023/07/05 08:49:14;;;;;;;2.10;1.00;;;;;;;;;;5015162;28;20674;-62
2023/07/05 08:51:45;;;;;;;0.60;0.60;;;;;;;;;;5015019;28;20438;-60
2023/07/05 08:54:13;;;;;;;0.55;0.47;;;;;;;;;;5013189;28;20890;-61
2023/07/05 08:56:43;;;;;;;0.60;0.60;;;;;;;;;;5017124;28;20485;-62
2023/07/05 08:59:28;;;;;;;2.50;0.88;;;;;;;;;;5012621;28;20496;-61
2023/07/05 09:01:56;;;;;;;0.55;0.55;;;;;;;;;;5018094;28;20434;-61
2023/07/05 09:04:27;;;;;;;1.05;0.52;;;;;;;;;;5016566;28;20443;-61
2023/07/05 09:07:15;;;;;;;0.50;0.50;;;;;;;;;;5018077;28;20434;-62
2023/07/05 09:10:07;;;;;;;0.52;0.52;;;;;;;;;;5017274;28;20483;-62
2023/07/05 09:12:48;;;;;;;0.57;0.57;;;;;;;;;;5013850;28;20461;-62
2023/07/05 09:15:20;;;;;;;0.80;0.50;;;;;;;;;;5022263;28;20435;-61
2023/07/05 09:17:52;;;;;;;0.50;0.50;;;;;;;;;;5019402;28;20441;-61
2023/07/05 09:20:28;;;;;;;0.35;0.35;;;;;;;;;;5018160;28;21183;-61
2023/07/05 09:23:01;;;;;;;0.40;0.40;;;;;;;;;;5019696;28;20960;-61
2023/07/05 09:25:30;;;;;;;1.00;1.00;;;;;;;;;;5014865;28;20431;-62
2023/07/05 09:28:37;;;;;;;2.45;0.50;;;;;;;;;;5015583;28;20426;-63
2023/07/05 09:31:15;;;;;;;0.35;0.28;;;;;;;;;;5014011;28;20478;-61
2023/07/05 09:33:49;;;;;;;0.57;0.57;;;;;;;;;;5011882;28;20453;-61
2023/07/05 09:36:23;;;;;;;0.68;0.68;;;;;;;;;;5015731;28;20512;-62
2023/07/05 09:38:55;;;;;;;0.60;0.60;;;;;;;;;;5016274;28;20450;-62
2023/07/05 09:41:33;;;;;;;0.40;0.40;;;;;;;;;;5018244;28;20449;-61
2023/07/05 09:44:01;;;;;;;0.40;0.40;;;;;;;;;;5014326;28;20494;-62
2023/07/05 09:46:32;;;;;;;0.50;0.40;;;;;;;;;;5018107;28;20525;-62
2023/07/05 09:49:00;;;;;;;0.90;0.40;;;;;;;;;;5015556;28;20435;-63
2023/07/05 09:51:27;;;;;;;0.55;0.35;;;;;;;;;;4995730;28;20811;-61
2023/07/05 09:54:00;;;;;;;0.20;0.20;;;;;;;;;;4999181;28;20454;-62
2023/07/05 09:56:27;;;;;;;0.40;0.40;;;;;;;;;;4998602;28;20514;-62
2023/07/05 09:59:16;;;;;;;0.45;0.45;;;;;;;;;;5015763;28;20435;-63
2023/07/05 10:01:48;;;;;;;0.30;0.30;;;;;;;;;;5014205;28;20442;-61
2023/07/05 10:04:16;;;;;;;0.30;0.30;;;;;;;;;;5016502;28;20436;-64
2023/07/05 10:06:50;;;;;;;0.35;0.35;;;;;;;;;;5018220;28;20437;-63
2023/07/05 10:09:24;;;;;;;0.40;0.40;;;;;;;;;;4999474;28;20429;-62
2023/07/05 10:11:59;;;;;;;1.00;0.30;;;;;;;;;;5013711;28;20456;-64
2023/07/05 10:14:28;;;;;;;0.98;0.60;;;;;;;;;;5015784;28;20435;-62
2023/07/05 10:16:57;;;;;;;1.20;0.50;;;;;;;;;;5014759;28;20442;-62
2023/07/05 10:19:31;;;;;;;0.40;0.40;;;;;;;;;;5014840;28;20626;-62
2023/07/05 10:22:07;;;;;;;0.30;0.30;;;;;;;;;;5014463;28;20444;-63
2023/07/05 10:24:57;;;;;;;0.20;0.20;;;;;;;;;;5014368;28;20493;-63
2023/07/05 10:27:27;;;;;;;0.67;0.60;;;;;;;;;;5018175;28;20513;-62
2023/07/05 10:30:31;;;;;;;0.40;0.40;;;;;;;;;;5018532;28;21500;-62
2023/07/05 10:33:08;;;;;;;1.23;0.43;;;;;;;;;;4971694;28;21045;-64
2023/07/05 10:35:45;;;;;;;0.25;0.25;;;;;;;;;;4978320;28;20425;-62
2023/07/05 10:38:26;;;;;;;0.50;0.50;;;;;;;;;;4979428;28;21071;-62
2023/07/05 10:41:00;;;;;;;1.05;0.38;;;;;;;;;;4977990;28;20456;-63
2023/07/05 10:43:29;;;;;;;1.00;0.30;;;;;;;;;;4978268;28;21044;-63
2023/07/05 10:45:56;;;;;;;0.20;0.20;;;;;;;;;;4955766;28;21603;-63
2023/07/05 10:48:26;;;;;;;1.08;0.30;;;;;;;;;;4980945;28;20529;-62
2023/07/05 10:50:58;;;;;;;0.83;0.37;;;;;;;;;;4976587;28;21009;-61
2023/07/05 10:53:26;;;;;;;0.30;0.30;;;;;;;;;;4978412;28;20841;-62
2023/07/05 10:56:05;;;;;;;0.30;0.30;;;;;;;;;;4977611;28;20444;-62
2023/07/05 10:58:40;;;;;;;0.70;0.35;;;;;;;;;;4982598;28;20430;-63
2023/07/05 11:01:14;;;;;;;3.50;0.50;;;;;;;;;;4984151;28;20424;-62
2023/07/05 11:03:45;;;;;;;0.20;0.20;;;;;;;;;;4981754;28;21224;-63
2023/07/05 11:06:13;;;;;;;0.20;0.20;;;;;;;;;;4979790;28;20487;-63
2023/07/05 11:08:45;;;;;;;0.20;0.20;;;;;;;;;;5005010;28;20543;-63
2023/07/05 11:11:16;;;;;;;0.90;0.40;;;;;;;;;;5019432;28;20435;-63
2023/07/05 11:13:46;;;;;;;0.20;0.20;;;;;;;;;;5008493;28;20980;-61
2023/07/05 11:16:17;;;;;;;0.47;0.30;;;;;;;;;;5010945;28;20439;-63
2023/07/05 11:18:47;;;;;;;0.45;0.40;;;;;;;;;;5015328;28;20526;-64
2023/07/05 11:21:33;;;;;;;1.38;0.45;;;;;;;;;;5015663;28;20446;-63
2023/07/05 11:24:01;;;;;;;0.32;0.32;;;;;;;;;;5019164;28;20442;-62
2023/07/05 11:26:36;;;;;;;0.80;0.43;;;;;;;;;;5013882;28;20431;-63
2023/07/05 11:29:24;;;;;;;0.38;0.38;;;;;;;;;;5015721;28;20485;-63
2023/07/05 11:31:54;;;;;;;0.50;0.50;;;;;;;;;;5002267;28;20896;-64
2023/07/05 11:34:21;;;;;;;1.10;1.10;;;;;;;;;;5008116;28;20435;-63
2023/07/05 11:36:53;;;;;;;0.80;0.60;;;;;;;;;;5018778;28;20543;-62
2023/07/05 11:39:37;;;;;;;0.52;0.38;;;;;;;;;;5023988;28;20967;-63
2023/07/05 11:42:16;;;;;;;0.55;0.52;;;;;;;;;;5022469;28;20432;-63
2023/07/05 11:44:44;;;;;;;2.70;0.30;;;;;;;;;;5020984;28;20449;-62
2023/07/05 11:47:23;;;;;;;0.30;0.30;;;;;;;;;;5016611;28;20518;-62
2023/07/05 11:49:53;;;;;;;0.50;0.50;;;;;;;;;;5020700;28;20434;-62
2023/07/05 11:52:24;;;;;;;0.30;0.30;;;;;;;;;;5020626;28;20493;-62
2023/07/05 11:55:00;;;;;;;0.40;0.40;;;;;;;;;;5003123;28;20435;-62
2023/07/05 11:57:29;;;;;;;0.47;0.47;;;;;;;;;;5021663;28;20437;-62
2023/07/05 12:00:23;;;;;;;0.30;0.30;;;;;;;;;;5020968;28;20518;-63
2023/07/05 12:03:00;;;;;;;0.50;0.40;;;;;;;;;;5021132;28;20854;-62
2023/07/05 12:05:29;;;;;;;0.30;0.30;;;;;;;;;;5016260;28;20928;-65
2023/07/05 12:08:04;;;;;;;0.60;0.60;;;;;;;;;;5015637;28;20562;-64
2023/07/05 12:10:36;;;;;;;0.60;0.50;;;;;;;;;;5020121;28;20435;-63
2023/07/05 12:13:04;;;;;;;5.60;0.50;;;;;;;;;;5025328;28;22657;-63
2023/07/05 12:15:34;;;;;;;0.50;0.50;;;;;;;;;;5027035;28;20427;-63
2023/07/05 12:18:05;;;;;;;0.30;0.30;;;;;;;;;;5019843;28;20562;-64
2023/07/05 12:20:40;;;;;;;0.40;0.40;;;;;;;;;;5017820;28;20470;-64
2023/07/05 12:23:15;;;;;;;0.68;0.68;;;;;;;;;;5020331;28;20501;-61
2023/07/05 12:25:53;;;;;;;0.40;0.40;;;;;;;;;;5015810;28;20517;-63
2023/07/05 12:28:25;;;;;;;0.60;0.57;;;;;;;;;;5019902;28;20530;-63
2023/07/05 12:31:10;;;;;;;0.60;0.30;;;;;;;;;;5023086;28;20526;-62
2023/07/05 12:33:40;;;;;;;0.40;0.40;;;;;;;;;;5017841;28;20466;-63
2023/07/05 12:36:10;;;;;;;0.75;0.50;;;;;;;;;;5021458;28;20474;-63
2023/07/05 12:38:43;;;;;;;0.70;0.63;;;;;;;;;;5004722;28;20553;-62
2023/07/05 12:41:17;;;;;;;0.55;0.52;;;;;;;;;;5018909;28;20435;-62
2023/07/05 12:44:05;;;;;;;0.30;0.30;;;;;;;;;;5017343;28;20470;-63
2023/07/05 12:46:33;;;;;;;0.50;0.50;;;;;;;;;;5017748;28;20454;-64
2023/07/05 12:49:19;;;;;;;1.00;0.40;;;;;;;;;;5002672;28;20436;-64
2023/07/05 12:51:51;;;;;;;0.60;0.60;;;;;;;;;;5016383;28;20430;-63
2023/07/05 12:54:18;;;;;;;0.45;0.30;;;;;;;;;;5000393;28;20788;-64
2023/07/05 12:56:46;;;;;;;0.30;0.30;;;;;;;;;;5011530;28;20497;-62
2023/07/05 12:59:15;;;;;;;1.10;0.50;;;;;;;;;;5022269;28;20538;-62
2023/07/05 13:02:02;;;;;;;0.53;0.50;;;;;;;;;;5023011;28;20466;-63
2023/07/05 13:04:35;;;;;;;0.40;0.40;;;;;;;;;;5028885;28;20446;-62
2023/07/05 13:07:04;;;;;;;1.10;0.22;;;;;;;;;;5030389;28;20468;-63
2023/07/05 13:09:32;;;;;;;0.20;0.20;;;;;;;;;;5022261;28;20585;-62
2023/07/05 13:12:00;;;;;;;1.20;0.40;;;;;;;;;;5022450;28;20434;-63
2023/07/05 13:14:34;;;;;;;0.35;0.35;;;;;;;;;;5004406;28;20432;-62
2023/07/05 13:17:18;;;;;;;1.30;0.80;;;;;;;;;;5018652;28;20434;-64
2023/07/05 13:19:58;;;;;;;1.17;0.28;;;;;;;;;;5007048;28;20979;-62
2023/07/05 13:22:26;;;;;;;0.32;0.32;;;;;;;;;;5030504;28;20438;-65
2023/07/05 13:24:55;;;;;;;0.30;0.30;;;;;;;;;;5023059;28;20432;-62
2023/07/05 13:27:22;;;;;;;0.38;0.38;;;;;;;;;;5023086;28;20442;-63
2023/07/05 13:29:51;;;;;;;0.70;0.40;;;;;;;;;;5023201;28;20458;-63
2023/07/05 13:32:32;;;;;;;0.50;0.50;;;;;;;;;;5016101;28;20430;-63
2023/07/05 13:34:59;;;;;;;0.88;0.50;;;;;;;;;;5016826;28;20438;-62
2023/07/05 13:37:29;;;;;;;1.30;0.37;;;;;;;;;;5020125;28;20437;-63
2023/07/05 13:39:58;;;;;;;0.40;0.40;;;;;;;;;;5014397;28;20986;-61
2023/07/05 13:42:27;;;;;;;0.47;0.47;;;;;;;;;;5023504;28;20493;-63
2023/07/05 13:44:55;;;;;;;1.30;0.63;;;;;;;;;;5025340;28;20816;-62
2023/07/05 13:47:24;;;;;;;0.68;0.65;;;;;;;;;;5018801;28;20423;-62
2023/07/05 13:49:51;;;;;;;1.10;0.50;;;;;;;;;;5025756;28;20425;-62
2023/07/05 13:52:26;;;;;;;0.30;0.30;;;;;;;;;;5033516;28;20446;-63
2023/07/05 13:55:21;;;;;;;0.60;0.60;;;;;;;;;;5019157;28;20485;-63
2023/07/05 13:57:56;;;;;;;0.40;0.40;;;;;;;;;;5025334;28;20504;-64
2023/07/05 14:00:26;;;;;;;1.27;0.63;;;;;;;;;;5016596;28;20449;-62
2023/07/05 14:02:54;;;;;;;0.85;0.50;;;;;;;;;;5023182;28;20435;-62
2023/07/05 14:05:26;;;;;;;0.30;0.30;;;;;;;;;;5025458;28;20963;-62
2023/07/05 14:07:54;;;;;;;0.50;0.50;;;;;;;;;;5004378;28;20887;-63
2023/07/05 14:10:26;;;;;;;0.47;0.47;;;;;;;;;;5017821;28;20431;-61
2023/07/05 14:12:53;;;;;;;0.50;0.50;;;;;;;;;;5020173;28;20446;-62
2023/07/05 14:15:29;;;;;;;0.40;0.40;;;;;;;;;;5021101;28;20921;-63
2023/07/05 14:17:57;;;;;;;0.60;0.50;;;;;;;;;;5021150;28;20466;-63
2023/07/05 14:20:26;;;;;;;0.50;0.50;;;;;;;;;;5019649;28;20441;-61
2023/07/05 14:22:54;;;;;;;2.50;0.40;;;;;;;;;;5025632;28;20439;-61
2023/07/05 14:25:21;;;;;;;0.97;0.43;;;;;;;;;;5014930;28;20522;-63
2023/07/05 14:27:49;;;;;;;0.47;0.47;;;;;;;;;;5018069;28;20512;-60
2023/07/05 14:30:16;;;;;;;1.10;0.55;;;;;;;;;;5024108;28;20430;-63
2023/07/05 14:32:49;;;;;;;1.17;0.55;;;;;;;;;;5023412;28;20773;-62
2023/07/05 14:35:18;;;;;;;1.70;0.60;;;;;;;;;;5020861;28;20445;-61
2023/07/05 14:37:49;;;;;;;0.60;0.60;;;;;;;;;;5022701;28;20548;-61
2023/07/05 14:40:17;;;;;;;0.50;0.50;;;;;;;;;;5022629;28;20442;-61
2023/07/05 14:42:45;;;;;;;2.10;0.45;;;;;;;;;;5022708;28;20912;-61
2023/07/05 14:45:17;;;;;;;0.50;0.50;;;;;;;;;;5010038;28;20512;-61
2023/07/05 14:47:51;;;;;;;0.30;0.30;;;;;;;;;;5011771;28;20921;-62
2023/07/05 14:50:21;;;;;;;0.68;0.68;;;;;;;;;;5019899;28;20523;-62
2023/07/05 14:52:49;;;;;;;0.40;0.40;;;;;;;;;;5017567;28;20431;-63
2023/07/05 14:55:18;;;;;;;3.33;0.50;;;;;;;;;;5019505;28;20427;-66
2023/07/05 14:57:45;;;;;;;0.52;0.52;;;;;;;;;;5014954;28;21055;-63
2023/07/05 15:00:13;;;;;;;0.50;0.50;;;;;;;;;;5014536;28;20440;-63
2023/07/05 15:02:47;;;;;;;0.95;0.45;;;;;;;;;;4999758;28;20482;-62
2023/07/05 15:05:16;;;;;;;0.55;0.55;;;;;;;;;;5004280;28;20524;-62